MMGM

Details ICAO MMGM (GYM)
Name GENERAL JOSE MARIA YANEZ INTL
Region Mexico
Timezone America/Hermosillo (UTC-7.0)
Plans Departing 4
Arriving 10
Stats Elevation 59 ft / 18 m (AMSL)
Location 27.968985° -110.925169°
Runways 1
Magnetic Variation 9.215° E
Sunrise 2017-12-12 14:07:12 UTC / 2017-12-12 07:07:12 Local
Sunset 2017-12-13 00:30:49 UTC / 2017-12-12 17:30:49 Local
Advertisement - Login to hide

Runways

ID Width Length Bearing (true) Bearing (mag) Surface Threshold Offset Overrun Length
02 148 ft / 45 m 7,706 ft / 2,349 m 29.28° 20.07° Asphalt 0 ft / 0 m 212 ft / 65 m
20 148 ft / 45 m 7,706 ft / 2,349 m 209.29° 200.08° Asphalt 0 ft / 0 m 212 ft / 65 m

Map

Weather


0- 5 10 15 20 25 30 35+ Temperature / ° C

Clouds and Precipitation
Forecast for 2017-12-12 12:00 UTC. Updated 43 minutes ago

Ground ~20,000 ft ~40,000 ft Winds

METAR

Not found

TAF

TAF MMGM 120520Z 1206/1306 00000KT 5SM HZ SCT070 FM121800 34008KT P6SM SCT030 BKN080 BECMG 13021304 24004KT SCT080

Frequencies

Tower 118.60 MHz GUAYMAS TWR
Approach 121.30 MHz HERMOSILLO APP
Warning: Do not use this data for real-world aviation or navigation. No guarantee of current accuracy is given.